KSGF/SGF METAR and TAF weather

Enter ICAO airport designator
Station Type Date Time Source
KSGF METAR 2019/12/12 08:52 UTC NOAA

KSGF 120852Z 16014KT 10SM CLR 03/M04 A3029 RMK AO2 SLP263 T00281044 56007


Station Type Date Time Source
KSGF Decoded METAR 2019/12/12 08:52 UTC NOAA

SPRINGFIELD-BRANSON NATIONAL, MO, United States (KSGF) 37-14N 93-23W 389M
Dec 12, 2019 - 03:52 AM EST / 2019.12.12 0852 UTC
Wind: from the SSE (160 degrees) at 16 MPH (14 KT):0
Visibility: 10 mile(s):0
Sky conditions: clear
Temperature: 37.0 F (2.8 C)
Dew Point: 24.1 F (-4.4 C)
Relative Humidity: 59%
Pressure (altimeter): 30.29 in. Hg (1025 hPa)
Pressure tendency: 0.02 inches (0.7 hPa) lower than three hours ago
ob: KSGF 120852Z 16014KT 10SM CLR 03/M04 A3029 RMK AO2 SLP263 T00281044 56007
cycle: 9

Station Type Date Time Source
KSGF TAF 2019/12/12 06:22 UTC NOAA

TAF KSGF 120520Z 1206/1306 17010KT P6SM SKC
FM121200 17014G23KT P6SM SCT250 WS020/20045KT
FM121800 19018G27KT P6SM FEW250
FM122300 18008KT P6SM SKC

Example: see airport list